createdAt,value
2018-02-02T00:01:07.380Z,998.22
2018-02-02T00:02:16.556Z,998.23
2018-02-02T00:03:25.503Z,998.21
2018-02-02T00:04:34.162Z,998.19
2018-02-02T00:05:43.363Z,998.2
2018-02-02T00:06:52.300Z,998.2
2018-02-02T00:08:01.031Z,998.18
2018-02-02T00:09:09.900Z,998.16
2018-02-02T00:10:19.068Z,998.14
2018-02-02T00:11:27.755Z,998.15
2018-02-02T00:12:36.421Z,998.17
2018-02-02T00:13:45.605Z,998.16
2018-02-02T00:14:55.050Z,998.16
2018-02-02T00:16:04.234Z,998.19
2018-02-02T00:17:13.153Z,998.16
2018-02-02T00:18:22.096Z,998.1
2018-02-02T00:19:31.007Z,998.11
2018-02-02T00:20:39.927Z,998.07
2018-02-02T00:21:48.586Z,998.13
2018-02-02T00:22:58.297Z,998.09
2018-02-02T00:24:07.760Z,998.07
2018-02-02T00:25:16.671Z,998.1
2018-02-02T00:26:25.380Z,998.06
2018-02-02T00:27:34.390Z,998.06
2018-02-02T00:28:43.560Z,998.05
2018-02-02T00:29:52.564Z,998.03
2018-02-02T00:31:01.503Z,998.03
2018-02-02T00:32:10.165Z,997.99
2018-02-02T00:33:18.845Z,998.06
2018-02-02T00:34:28.057Z,998.05
2018-02-02T00:35:36.729Z,998.09
2018-02-02T00:36:45.645Z,998.07
2018-02-02T00:37:54.547Z,998.07
2018-02-02T00:39:03.988Z,998.03
2018-02-02T00:40:12.923Z,998.02
2018-02-02T00:41:21.586Z,998.01
2018-02-02T00:42:30.277Z,998.02
2018-02-02T00:43:39.245Z,998.01
2018-02-02T00:44:48.496Z,998
2018-02-02T00:45:57.465Z,998.01
2018-02-02T00:47:06.168Z,998.03
2018-02-02T00:48:15.393Z,998.05
2018-02-02T00:49:24.624Z,997.96
2018-02-02T00:50:33.880Z,997.98
2018-02-02T00:51:43.110Z,997.97
2018-02-02T00:52:51.812Z,997.98
2018-02-02T00:54:01.039Z,997.95
2018-02-02T00:55:10.260Z,997.94
2018-02-02T00:56:19.494Z,997.95
2018-02-02T00:57:28.445Z,997.98
2018-02-02T00:58:37.144Z,997.95
2018-02-02T00:59:46.625Z,997.96
2018-02-02T01:00:56.095Z,997.98
2018-02-02T01:02:05.034Z,998
2018-02-02T01:03:13.733Z,997.98
2018-02-02T01:04:23.475Z,997.99
2018-02-02T01:05:32.418Z,998.03
2018-02-02T01:06:41.614Z,998.02
2018-02-02T01:07:50.834Z,997.97
2018-02-02T01:08:59.567Z,997.95
2018-02-02T01:10:08.543Z,997.97
2018-02-02T01:11:17.750Z,997.96
2018-02-02T01:12:26.694Z,997.96
2018-02-02T01:13:35.655Z,997.94
2018-02-02T01:14:44.380Z,997.97
2018-02-02T01:15:53.848Z,997.96
2018-02-02T01:17:03.054Z,997.98
2018-02-02T01:18:12.286Z,997.93
2018-02-02T01:19:21.512Z,997.95
2018-02-02T01:20:30.206Z,997.94
2018-02-02T01:21:39.438Z,997.91
2018-02-02T01:22:48.400Z,997.91
2018-02-02T01:23:57.357Z,997.9
2018-02-02T01:25:06.324Z,997.94
2018-02-02T01:26:15.811Z,997.95
2018-02-02T01:27:25.031Z,997.96
2018-02-02T01:28:33.723Z,998.02
2018-02-02T01:29:42.430Z,997.98
2018-02-02T01:30:51.112Z,997.98
2018-02-02T01:31:59.809Z,997.95
2018-02-02T01:33:08.509Z,997.96
2018-02-02T01:34:17.211Z,997.96
2018-02-02T01:35:26.701Z,997.92
2018-02-02T01:36:35.961Z,997.94
2018-02-02T01:37:44.945Z,997.94
2018-02-02T01:38:54.179Z,997.94
2018-02-02T01:40:03.420Z,997.93
2018-02-02T01:41:12.371Z,997.88
2018-02-02T01:42:21.324Z,997.87
2018-02-02T01:43:30.026Z,997.85
2018-02-02T01:44:38.992Z,997.86
2018-02-02T01:45:48.767Z,997.84
2018-02-02T01:46:58.501Z,997.83
2018-02-02T01:48:07.737Z,997.82
2018-02-02T01:49:16.684Z,997.85
2018-02-02T01:50:25.911Z,997.81
2018-02-02T01:51:35.133Z,997.82
2018-02-02T01:52:44.098Z,997.79
2018-02-02T01:53:53.051Z,997.85
2018-02-02T01:55:01.996Z,997.8
2018-02-02T01:56:11.238Z,997.88
2018-02-02T01:57:19.950Z,997.79
2018-02-02T01:58:28.655Z,997.79
2018-02-02T01:59:38.171Z,997.77
2018-02-02T02:00:47.653Z,997.74
2018-02-02T02:01:56.620Z,997.71
2018-02-02T02:03:05.342Z,997.75
2018-02-02T02:04:14.298Z,997.73
2018-02-02T02:05:23.248Z,997.76
2018-02-02T02:06:32.473Z,997.72
2018-02-02T02:07:41.453Z,997.73
2018-02-02T02:08:50.134Z,997.78
2018-02-02T02:09:59.099Z,997.68
2018-02-02T02:11:08.045Z,997.64
2018-02-02T02:12:17.271Z,997.7
2018-02-02T02:13:26.211Z,997.7
2018-02-02T02:14:35.146Z,997.68
2018-02-02T02:15:44.176Z,997.7
2018-02-02T02:16:53.395Z,997.64
2018-02-02T02:18:02.344Z,997.6
2018-02-02T02:19:11.551Z,997.64
2018-02-02T02:20:20.500Z,997.59
2018-02-02T02:21:29.448Z,997.61
2018-02-02T02:22:38.387Z,997.59
2018-02-02T02:23:47.364Z,997.67
2018-02-02T02:24:56.321Z,997.55
2018-02-02T02:26:05.282Z,997.55
2018-02-02T02:27:14.221Z,997.53
2018-02-02T02:28:23.218Z,997.54
2018-02-02T02:29:32.437Z,997.55
2018-02-02T02:30:41.939Z,997.52
2018-02-02T02:31:51.146Z,997.51
2018-02-02T02:33:00.104Z,997.47
2018-02-02T02:34:09.586Z,997.47
2018-02-02T02:35:18.813Z,997.47
2018-02-02T02:36:27.500Z,997.47
2018-02-02T02:37:36.445Z,997.45
2018-02-02T02:38:45.675Z,997.45
2018-02-02T02:39:54.905Z,997.41
2018-02-02T02:41:03.899Z,997.41
2018-02-02T02:42:12.849Z,997.39
2018-02-02T02:43:21.564Z,997.43
2018-02-02T02:44:30.517Z,997.34
2018-02-02T02:45:39.278Z,997.35
2018-02-02T02:46:48.530Z,997.36
2018-02-02T02:47:57.736Z,997.38
2018-02-02T02:49:06.685Z,997.32
2018-02-02T02:50:15.406Z,997.31
2018-02-02T02:51:24.371Z,997.27
2018-02-02T02:52:33.330Z,997.25
2018-02-02T02:53:42.546Z,997.21
2018-02-02T02:54:51.231Z,997.2
2018-02-02T02:55:59.942Z,997.14
2018-02-02T02:57:09.488Z,997.15
2018-02-02T02:58:18.488Z,997.2
2018-02-02T02:59:27.717Z,997.2
2018-02-02T03:00:36.670Z,997.15
2018-02-02T03:01:45.647Z,997.17
2018-02-02T03:02:54.675Z,997.14
2018-02-02T03:04:04.155Z,997.13
2018-02-02T03:05:13.108Z,997.1
2018-02-02T03:06:21.809Z,997.09
2018-02-02T03:07:30.781Z,997.06
2018-02-02T03:08:40.258Z,997.09
2018-02-02T03:09:49.221Z,997.05
2018-02-02T03:10:58.167Z,997.07
2018-02-02T03:12:07.155Z,997.05
2018-02-02T03:13:16.204Z,997.04
2018-02-02T03:14:25.192Z,997.08
2018-02-02T03:15:34.689Z,997.08
2018-02-02T03:16:43.678Z,997.14
2018-02-02T03:17:52.643Z,997.21
2018-02-02T03:19:01.873Z,997.21
2018-02-02T03:20:10.845Z,997.22
2018-02-02T03:21:19.800Z,997.28
2018-02-02T03:22:28.511Z,997.22
2018-02-02T03:23:37.731Z,997.27
2018-02-02T03:24:46.681Z,997.28
2018-02-02T03:25:55.431Z,997.27
2018-02-02T03:27:04.389Z,997.25
2018-02-02T03:28:13.338Z,997.29
2018-02-02T03:29:22.571Z,997.3
2018-02-02T03:30:31.808Z,997.26
2018-02-02T03:31:41.288Z,997.22
2018-02-02T03:32:50.247Z,997.26
2018-02-02T03:33:59.222Z,997.23
2018-02-02T03:35:08.439Z,997.26
2018-02-02T03:36:17.394Z,997.24
2018-02-02T03:37:26.088Z,997.27
2018-02-02T03:38:35.047Z,997.22
2018-02-02T03:39:43.996Z,997.25
2018-02-02T03:40:52.977Z,997.22
2018-02-02T03:42:01.947Z,997.21
2018-02-02T03:43:10.894Z,997.25
2018-02-02T03:44:19.842Z,997.2
2018-02-02T03:45:29.074Z,997.19
2018-02-02T03:46:38.293Z,997.2
2018-02-02T03:47:47.243Z,997.26
2018-02-02T03:48:56.205Z,997.22
2018-02-02T03:50:04.900Z,997.27
2018-02-02T03:51:13.577Z,997.24
2018-02-02T03:52:22.807Z,997.28
2018-02-02T03:53:31.502Z,997.25
2018-02-02T03:54:40.460Z,997.25
2018-02-02T03:55:49.150Z,997.24
2018-02-02T03:56:58.087Z,997.21
2018-02-02T03:58:07.322Z,997.23
2018-02-02T03:59:16.548Z,997.2
2018-02-02T04:00:26.059Z,997.24
2018-02-02T04:01:35.121Z,997.24
2018-02-02T04:02:44.066Z,997.22
2018-02-02T04:03:53.300Z,997.26
2018-02-02T04:05:02.285Z,997.3
2018-02-02T04:06:11.265Z,997.31
2018-02-02T04:07:20.227Z,997.31
2018-02-02T04:08:28.918Z,997.3
2018-02-02T04:09:38.134Z,997.32
2018-02-02T04:10:47.078Z,997.28
2018-02-02T04:11:56.043Z,997.28
2018-02-02T04:13:04.786Z,997.32
2018-02-02T04:14:13.514Z,997.28
2018-02-02T04:15:23.029Z,997.23
2018-02-02T04:16:31.977Z,997.22
2018-02-02T04:17:41.549Z,997.27
2018-02-02T04:18:50.772Z,997.25
2018-02-02T04:20:00.302Z,997.25
2018-02-02T04:21:09.300Z,997.25
2018-02-02T04:22:18.021Z,997.24
2018-02-02T04:23:26.976Z,997.26
2018-02-02T04:24:35.931Z,997.25
2018-02-02T04:25:44.912Z,997.27
2018-02-02T04:26:53.932Z,997.29
2018-02-02T04:28:02.637Z,997.27
2018-02-02T04:29:11.850Z,997.34
2018-02-02T04:30:20.816Z,997.35
2018-02-02T04:31:29.509Z,997.36
2018-02-02T04:32:38.462Z,997.37
2018-02-02T04:33:47.429Z,997.32
2018-02-02T04:34:56.389Z,997.35
2018-02-02T04:36:05.120Z,997.32
2018-02-02T04:37:14.074Z,997.4
2018-02-02T04:38:23.295Z,997.39
2018-02-02T04:39:32.489Z,997.37
2018-02-02T04:40:41.707Z,997.37
2018-02-02T04:41:50.722Z,997.39
2018-02-02T04:42:59.433Z,997.41
2018-02-02T04:44:08.394Z,997.36
2018-02-02T04:45:17.600Z,997.33
2018-02-02T04:46:26.565Z,997.34
2018-02-02T04:47:36.045Z,997.34
2018-02-02T04:48:44.996Z,997.39
2018-02-02T04:49:54.226Z,997.36
2018-02-02T04:51:03.441Z,997.38
2018-02-02T04:52:12.423Z,997.38
2018-02-02T04:53:21.967Z,997.36
2018-02-02T04:54:30.698Z,997.37
2018-02-02T04:55:39.437Z,997.35
2018-02-02T04:56:48.399Z,997.38
2018-02-02T04:57:57.718Z,997.37
2018-02-02T04:59:06.427Z,997.38
2018-02-02T05:00:15.635Z,997.35
2018-02-02T05:01:24.655Z,997.33
2018-02-02T05:02:34.153Z,997.37
2018-02-02T05:03:43.116Z,997.3
2018-02-02T05:04:52.105Z,997.27
2018-02-02T05:06:01.334Z,997.27
2018-02-02T05:07:11.356Z,997.27
2018-02-02T05:08:20.097Z,997.33
2018-02-02T05:09:29.312Z,997.3
2018-02-02T05:10:38.595Z,997.3
2018-02-02T05:11:47.575Z,997.28
2018-02-02T05:12:57.331Z,997.32
2018-02-02T05:14:07.184Z,997.33
2018-02-02T05:15:16.145Z,997.3
2018-02-02T05:16:24.841Z,997.33
2018-02-02T05:17:33.817Z,997.26
2018-02-02T05:18:43.053Z,997.28
2018-02-02T05:19:52.568Z,997.3
2018-02-02T05:21:01.774Z,997.35
2018-02-02T05:22:11.053Z,997.3
2018-02-02T05:23:20.021Z,997.29
2018-02-02T05:24:28.983Z,997.3
2018-02-02T05:25:37.704Z,997.29
2018-02-02T05:26:46.664Z,997.28
2018-02-02T05:27:55.957Z,997.34
2018-02-02T05:29:04.932Z,997.32
2018-02-02T05:30:13.927Z,997.35
2018-02-02T05:31:22.930Z,997.36
2018-02-02T05:32:31.667Z,997.35
2018-02-02T05:33:40.948Z,997.38
2018-02-02T05:34:50.191Z,997.29
2018-02-02T05:35:59.435Z,997.36
2018-02-02T05:37:08.667Z,997.39
2018-02-02T05:38:18.222Z,997.37
2018-02-02T05:39:27.466Z,997.34
2018-02-02T05:40:36.793Z,997.33
2018-02-02T05:41:45.498Z,997.34
2018-02-02T05:42:54.445Z,997.37
2018-02-02T05:44:03.441Z,997.34
2018-02-02T05:45:12.406Z,997.36
2018-02-02T05:46:21.397Z,997.32
2018-02-02T05:47:30.126Z,997.34
2018-02-02T05:48:39.360Z,997.36
2018-02-02T05:49:48.322Z,997.31
2018-02-02T05:50:57.877Z,997.31
2018-02-02T05:52:07.141Z,997.31
2018-02-02T05:53:15.916Z,997.28
2018-02-02T05:54:24.906Z,997.26
2018-02-02T05:55:34.129Z,997.3
2018-02-02T05:56:42.865Z,997.28
2018-02-02T05:57:52.186Z,997.31
2018-02-02T05:59:01.716Z,997.31
2018-02-02T06:00:10.671Z,997.23
2018-02-02T06:01:20.252Z,997.28
2018-02-02T06:02:29.496Z,997.26
2018-02-02T06:03:39.052Z,997.26
2018-02-02T06:04:48.072Z,997.27
2018-02-02T06:05:57.021Z,997.29
2018-02-02T06:07:05.991Z,997.25
2018-02-02T06:08:16.012Z,997.25
2018-02-02T06:09:25.253Z,997.26
2018-02-02T06:10:34.280Z,997.17
2018-02-02T06:11:42.972Z,997.21
2018-02-02T06:12:51.676Z,997.16
2018-02-02T06:14:00.905Z,997.18
2018-02-02T06:15:10.158Z,997.19
2018-02-02T06:16:19.120Z,997.17
2018-02-02T06:17:28.367Z,997.2
2018-02-02T06:18:37.314Z,997.22
2018-02-02T06:19:46.575Z,997.2
2018-02-02T06:20:55.576Z,997.19
2018-02-02T06:22:04.556Z,997.22
2018-02-02T06:23:13.782Z,997.22
2018-02-02T06:24:22.757Z,997.26
2018-02-02T06:25:31.730Z,997.28
2018-02-02T06:26:40.444Z,997.28
2018-02-02T06:27:49.447Z,997.29
2018-02-02T06:28:58.148Z,997.26
2018-02-02T06:30:07.375Z,997.28
2018-02-02T06:31:16.898Z,997.3
2018-02-02T06:32:26.123Z,997.28
2018-02-02T06:33:35.382Z,997.27
2018-02-02T06:34:44.340Z,997.34
2018-02-02T06:35:53.053Z,997.28
2018-02-02T06:37:02.565Z,997.31
2018-02-02T06:38:11.304Z,997.34
2018-02-02T06:39:20.513Z,997.3
2018-02-02T06:40:29.214Z,997.34
2018-02-02T06:41:38.198Z,997.3
2018-02-02T06:42:46.977Z,997.31
2018-02-02T06:43:55.964Z,997.32
2018-02-02T06:45:04.685Z,997.25
2018-02-02T06:46:14.195Z,997.28
2018-02-02T06:47:22.904Z,997.27
2018-02-02T06:48:31.903Z,997.27
2018-02-02T06:52:13.733Z,997.28
2018-02-02T06:53:22.703Z,997.25
2018-02-02T06:54:31.389Z,997.26
2018-02-02T06:55:40.609Z,997.28
2018-02-02T06:56:49.598Z,997.31
2018-02-02T06:57:58.312Z,997.32
2018-02-02T06:59:06.989Z,997.34
2018-02-02T07:00:15.946Z,997.33
2018-02-02T07:01:25.180Z,997.27
2018-02-02T07:02:34.141Z,997.3
2018-02-02T07:03:43.364Z,997.34
2018-02-02T07:04:52.869Z,997.32
2018-02-02T07:06:02.643Z,997.27
2018-02-02T07:07:12.140Z,997.32
2018-02-02T07:08:21.096Z,997.29
2018-02-02T07:09:30.352Z,997.34
2018-02-02T07:10:39.565Z,997.31
2018-02-02T07:11:48.569Z,997.35
2018-02-02T07:12:57.261Z,997.3
2018-02-02T07:14:05.990Z,997.31
2018-02-02T07:15:14.981Z,997.28
2018-02-02T07:16:24.242Z,997.32
2018-02-02T07:17:33.451Z,997.29
2018-02-02T07:18:42.426Z,997.28
2018-02-02T07:19:51.419Z,997.3
2018-02-02T07:21:00.130Z,997.28
2018-02-02T07:22:08.841Z,997.34
2018-02-02T07:23:17.797Z,997.31
2018-02-02T07:24:26.479Z,997.34
2018-02-02T07:25:35.458Z,997.3
2018-02-02T07:26:44.691Z,997.31
2018-02-02T07:27:54.171Z,997.3
2018-02-02T07:29:02.917Z,997.33
2018-02-02T07:30:11.938Z,997.25
2018-02-02T07:31:21.199Z,997.33
2018-02-02T07:32:30.155Z,997.25
2018-02-02T07:33:39.667Z,997.27
2018-02-02T07:34:48.437Z,997.31
2018-02-02T07:35:57.414Z,997.28
2018-02-02T07:37:06.694Z,997.32
2018-02-02T07:38:15.942Z,997.3
2018-02-02T07:39:25.429Z,997.32
2018-02-02T07:40:34.652Z,997.28
2018-02-02T07:41:43.360Z,997.31
2018-02-02T07:42:52.844Z,997.32
2018-02-02T07:44:02.060Z,997.29
2018-02-02T07:45:11.041Z,997.33
2018-02-02T07:46:20.272Z,997.3
2018-02-02T07:47:29.240Z,997.3
2018-02-02T07:48:37.938Z,997.26
2018-02-02T07:49:46.897Z,997.35
2018-02-02T07:50:56.156Z,997.39
2018-02-02T07:52:05.627Z,997.43
2018-02-02T07:53:15.094Z,997.37
2018-02-02T07:54:24.055Z,997.35
2018-02-02T07:55:32.746Z,997.34
2018-02-02T07:56:42.480Z,997.31
2018-02-02T07:57:51.761Z,997.28
2018-02-02T07:59:00.998Z,997.32
2018-02-02T08:00:10.754Z,997.33
2018-02-02T08:01:20.042Z,997.33
2018-02-02T08:02:29.292Z,997.3
2018-02-02T08:03:38.311Z,997.27
2018-02-02T08:04:48.086Z,997.31
2018-02-02T08:05:57.041Z,997.3
2018-02-02T08:07:05.801Z,997.28
2018-02-02T08:08:15.081Z,997.29
2018-02-02T08:09:24.339Z,997.31
2018-02-02T08:10:33.609Z,997.33
2018-02-02T08:11:43.362Z,997.33
2018-02-02T08:12:52.604Z,997.35
2018-02-02T08:14:02.164Z,997.33
2018-02-02T08:15:11.400Z,997.3
2018-02-02T08:16:20.379Z,997.34
2018-02-02T08:17:29.376Z,997.34
2018-02-02T08:18:38.386Z,997.32
2018-02-02T08:19:47.358Z,997.39
2018-02-02T08:20:56.336Z,997.35
2018-02-02T08:22:05.316Z,997.38
2018-02-02T08:23:14.318Z,997.32
2018-02-02T08:24:23.556Z,997.4
2018-02-02T08:25:32.521Z,997.4
2018-02-02T08:26:41.497Z,997.34
2018-02-02T08:27:51.019Z,997.45
2018-02-02T08:29:00.022Z,997.39
2018-02-02T08:30:09.038Z,997.42
2018-02-02T08:31:18.584Z,997.4
2018-02-02T08:32:27.276Z,997.44
2018-02-02T08:33:36.228Z,997.41
2018-02-02T08:34:45.512Z,997.4
2018-02-02T08:35:54.239Z,997.49
2018-02-02T08:37:03.795Z,997.43
2018-02-02T08:38:12.494Z,997.38
2018-02-02T08:39:21.229Z,997.42
2018-02-02T08:40:30.451Z,997.41
2018-02-02T08:41:39.196Z,997.4
2018-02-02T08:42:48.217Z,997.49
2018-02-02T08:43:57.433Z,997.44
2018-02-02T08:45:07.135Z,997.42
2018-02-02T08:46:15.858Z,997.43
2018-02-02T08:47:25.351Z,997.38
2018-02-02T08:48:34.335Z,997.37
2018-02-02T08:49:43.137Z,997.4
2018-02-02T08:50:52.652Z,997.36
2018-02-02T08:52:01.919Z,997.35
2018-02-02T08:53:10.877Z,997.35
2018-02-02T08:54:19.881Z,997.38
2018-02-02T08:55:29.134Z,997.39
2018-02-02T08:56:38.107Z,997.36
2018-02-02T08:57:47.067Z,997.4
2018-02-02T08:58:56.383Z,997.36
2018-02-02T09:00:05.640Z,997.39
2018-02-02T09:01:15.134Z,997.39
2018-02-02T09:02:24.115Z,997.4
2018-02-02T09:03:33.373Z,997.41
2018-02-02T09:04:42.349Z,997.43
2018-02-02T09:05:51.885Z,997.39
2018-02-02T09:07:00.650Z,997.4
2018-02-02T09:08:09.640Z,997.43
2018-02-02T09:09:18.354Z,997.48
2018-02-02T09:10:27.306Z,997.42
2018-02-02T09:11:37.043Z,997.47
2018-02-02T09:12:45.783Z,997.42
2018-02-02T09:13:55.271Z,997.46
2018-02-02T09:15:03.967Z,997.38
2018-02-02T09:16:12.949Z,997.49
2018-02-02T09:17:21.710Z,997.47
2018-02-02T09:18:30.701Z,997.51
2018-02-02T09:19:39.950Z,997.52
2018-02-02T09:20:48.940Z,997.54
2018-02-02T09:21:58.431Z,997.51
2018-02-02T09:23:07.664Z,997.52
2018-02-02T09:24:16.890Z,997.55
2018-02-02T09:25:26.105Z,997.56
2018-02-02T09:26:35.072Z,997.53
2018-02-02T09:27:44.286Z,997.48
2018-02-02T09:28:53.245Z,997.5
2018-02-02T09:30:02.240Z,997.45
2018-02-02T09:31:11.453Z,997.51
2018-02-02T09:32:20.159Z,997.5
2018-02-02T09:33:29.379Z,997.52
2018-02-02T09:34:38.881Z,997.51
2018-02-02T09:35:47.595Z,997.58
2018-02-02T09:36:56.571Z,997.57
2018-02-02T09:38:05.823Z,997.56
2018-02-02T09:39:14.809Z,997.57
2018-02-02T09:40:24.117Z,997.59
2018-02-02T09:41:33.341Z,997.62
2018-02-02T09:42:42.316Z,997.62
2018-02-02T09:43:51.787Z,997.63
2018-02-02T09:45:00.492Z,997.61
2018-02-02T09:46:09.703Z,997.62
2018-02-02T09:47:18.699Z,997.59
2018-02-02T09:48:27.679Z,997.59
2018-02-02T09:49:36.402Z,997.61
2018-02-02T09:50:45.622Z,997.66
2018-02-02T09:51:54.619Z,997.67
2018-02-02T09:53:03.321Z,997.65
2018-02-02T09:54:12.392Z,997.64
2018-02-02T09:55:21.356Z,997.66
2018-02-02T09:56:30.569Z,997.69
2018-02-02T09:57:39.838Z,997.65
2018-02-02T09:58:49.082Z,997.62
2018-02-02T09:59:58.311Z,997.63
2018-02-02T10:01:07.299Z,997.63
2018-02-02T10:02:16.253Z,997.64
2018-02-02T10:03:25.497Z,997.66
2018-02-02T10:04:34.457Z,997.68
2018-02-02T10:05:43.499Z,997.7
2018-02-02T10:06:52.182Z,997.68
2018-02-02T10:08:01.407Z,997.65
2018-02-02T10:09:10.441Z,997.67
2018-02-02T10:10:19.197Z,997.72
2018-02-02T10:11:28.161Z,997.72
2018-02-02T10:12:36.876Z,997.72
2018-02-02T10:13:46.646Z,997.78
2018-02-02T10:14:55.918Z,997.76
2018-02-02T10:16:04.692Z,997.8
2018-02-02T10:17:14.192Z,997.82
2018-02-02T10:18:23.429Z,997.71
2018-02-02T10:19:32.913Z,997.77
2018-02-02T10:20:41.876Z,997.8
2018-02-02T10:21:50.845Z,997.75
2018-02-02T10:23:00.328Z,997.84
2018-02-02T10:24:09.271Z,997.81
2018-02-02T10:25:18.757Z,997.81
2018-02-02T10:26:28.006Z,997.84
2018-02-02T10:27:37.225Z,997.85
2018-02-02T10:28:46.452Z,997.84
2018-02-02T10:29:55.763Z,997.81
2018-02-02T10:31:05.245Z,997.79
2018-02-02T10:32:14.193Z,997.84
2018-02-02T10:33:23.704Z,997.79
2018-02-02T10:34:32.400Z,997.83
2018-02-02T10:35:41.389Z,997.8
2018-02-02T10:36:50.343Z,997.83
2018-02-02T10:37:59.041Z,997.8
2018-02-02T10:39:08.020Z,997.8
2018-02-02T10:40:16.733Z,997.81
2018-02-02T10:41:25.693Z,997.78
2018-02-02T10:42:34.654Z,997.81
2018-02-02T10:43:43.906Z,997.8
2018-02-02T10:44:53.388Z,997.9
2018-02-02T10:46:02.356Z,997.82
2018-02-02T10:47:11.308Z,997.88
2018-02-02T10:48:20.274Z,997.91
2018-02-02T10:49:29.502Z,997.95
2018-02-02T10:50:38.214Z,997.89
2018-02-02T10:51:47.679Z,997.91
2018-02-02T10:52:56.900Z,997.95
2018-02-02T10:54:06.375Z,997.9
2018-02-02T10:55:15.081Z,997.95
2018-02-02T10:56:24.051Z,997.95
2018-02-02T10:57:33.281Z,997.94
2018-02-02T10:58:42.258Z,997.92
2018-02-02T10:59:51.229Z,997.92
2018-02-02T11:01:00.702Z,997.93
2018-02-02T11:02:09.684Z,997.95
2018-02-02T11:03:19.418Z,997.97
2018-02-02T11:04:28.132Z,997.97
2018-02-02T11:05:36.892Z,997.9
2018-02-02T11:06:46.152Z,997.94
2018-02-02T11:07:55.113Z,997.96
2018-02-02T11:09:04.075Z,997.95
2018-02-02T11:10:13.049Z,997.95
2018-02-02T11:11:22.011Z,998
2018-02-02T11:12:30.990Z,997.9
2018-02-02T11:13:39.989Z,997.94
2018-02-02T11:14:49.221Z,997.96
2018-02-02T11:15:57.972Z,997.94
2018-02-02T11:17:07.209Z,997.96
2018-02-02T11:18:16.114Z,997.99
2018-02-02T11:19:25.104Z,997.97
2018-02-02T11:20:34.067Z,997.92
2018-02-02T11:21:43.050Z,997.9
2018-02-02T11:22:52.029Z,997.92
2018-02-02T11:24:01.012Z,997.86
2018-02-02T11:25:10.071Z,997.88
2018-02-02T11:26:19.020Z,997.87
2018-02-02T11:27:28.243Z,997.88
2018-02-02T11:28:37.455Z,997.91
2018-02-02T11:29:46.661Z,997.92
2018-02-02T11:30:55.873Z,997.87
2018-02-02T11:32:04.835Z,997.85
2018-02-02T11:33:13.578Z,997.86
2018-02-02T11:34:22.263Z,997.93
2018-02-02T11:35:31.516Z,997.89
2018-02-02T11:36:40.733Z,997.85
2018-02-02T11:37:50.195Z,997.82
2018-02-02T11:38:59.949Z,997.84
2018-02-02T11:40:08.644Z,997.82
2018-02-02T11:41:17.639Z,997.77
2018-02-02T11:42:26.842Z,997.81
2018-02-02T11:43:35.815Z,997.78
2018-02-02T11:44:44.523Z,997.77
2018-02-02T11:45:53.497Z,997.78
2018-02-02T11:47:03.000Z,997.8
2018-02-02T11:48:11.954Z,997.81
2018-02-02T11:49:20.641Z,997.74
2018-02-02T11:50:29.363Z,997.84
2018-02-02T11:51:38.097Z,997.81
2018-02-02T11:52:47.316Z,997.79
2018-02-02T11:53:56.272Z,997.81
2018-02-02T11:55:05.225Z,997.83
2018-02-02T11:56:14.448Z,997.81
2018-02-02T11:57:23.966Z,997.79
2018-02-02T11:58:32.928Z,997.85
2018-02-02T11:59:42.411Z,997.81
2018-02-02T12:00:51.621Z,997.85
2018-02-02T12:02:00.846Z,997.8
2018-02-02T12:03:09.805Z,997.82
2018-02-02T12:04:19.340Z,997.88
2018-02-02T12:05:28.307Z,997.89
2018-02-02T12:06:37.294Z,997.84
2018-02-02T12:07:46.236Z,997.85
2018-02-02T12:08:54.928Z,997.89
2018-02-02T12:10:03.885Z,997.85
2018-02-02T12:11:12.578Z,997.89
2018-02-02T12:12:21.899Z,997.94
2018-02-02T12:13:30.636Z,997.93
2018-02-02T12:14:39.324Z,997.93
2018-02-02T12:15:48.856Z,997.92
2018-02-02T12:16:57.567Z,997.97
2018-02-02T12:18:06.335Z,997.99
2018-02-02T12:19:15.575Z,997.99
2018-02-02T12:20:24.525Z,998
2018-02-02T12:21:34.034Z,998.05
2018-02-02T12:22:42.716Z,998.01
2018-02-02T12:23:51.945Z,998.04
2018-02-02T12:25:01.459Z,998.01
2018-02-02T12:26:11.203Z,997.97
2018-02-02T12:27:20.164Z,998.02
2018-02-02T12:28:29.441Z,998.02
2018-02-02T12:29:38.387Z,998.02
2018-02-02T12:30:48.139Z,998.04
2018-02-02T12:31:56.832Z,998.03
2018-02-02T12:33:05.944Z,998.09
2018-02-02T12:34:14.923Z,998.12
2018-02-02T12:35:23.870Z,998.06
2018-02-02T12:36:32.575Z,998.09
2018-02-02T12:37:41.526Z,998.07
2018-02-02T12:38:50.775Z,998.06
2018-02-02T12:39:59.516Z,998.07
2018-02-02T12:41:08.508Z,998.09
2018-02-02T12:42:17.770Z,998.13
2018-02-02T12:43:26.735Z,998.11
2018-02-02T12:44:35.692Z,998.17
2018-02-02T12:45:44.649Z,998.18
2018-02-02T12:46:53.361Z,998.24
2018-02-02T12:48:02.077Z,998.25
2018-02-02T12:49:11.364Z,998.24
2018-02-02T12:50:20.854Z,998.28
2018-02-02T12:51:29.656Z,998.25
2018-02-02T12:52:38.599Z,998.32
2018-02-02T12:53:47.295Z,998.29
2018-02-02T12:54:56.252Z,998.27
2018-02-02T12:56:05.454Z,998.32
2018-02-02T12:57:14.671Z,998.32
2018-02-02T12:58:23.661Z,998.34
2018-02-02T12:59:32.609Z,998.35
2018-02-02T13:00:41.853Z,998.3
2018-02-02T13:01:51.152Z,998.35
2018-02-02T13:03:00.099Z,998.34
2018-02-02T13:04:08.782Z,998.31
2018-02-02T13:05:18.529Z,998.33
2018-02-02T13:06:27.815Z,998.4
2018-02-02T13:07:36.859Z,998.4
2018-02-02T13:08:46.091Z,998.38
2018-02-02T13:09:55.048Z,998.4
2018-02-02T13:11:03.996Z,998.38
2018-02-02T13:12:12.740Z,998.43
2018-02-02T13:13:22.033Z,998.41
2018-02-02T13:14:30.790Z,998.39
2018-02-02T13:15:39.741Z,998.41
2018-02-02T13:16:48.475Z,998.41
2018-02-02T13:17:57.731Z,998.39
2018-02-02T13:19:07.322Z,998.36
2018-02-02T13:20:16.577Z,998.4
2018-02-02T13:21:25.833Z,998.44
2018-02-02T13:22:34.574Z,998.42
2018-02-02T13:23:43.799Z,998.44
2018-02-02T13:24:53.013Z,998.46
2018-02-02T13:26:02.763Z,998.43
2018-02-02T13:27:11.753Z,998.44
2018-02-02T13:28:20.767Z,998.46
2018-02-02T13:29:29.756Z,998.45
2018-02-02T13:30:38.730Z,998.49
2018-02-02T13:31:47.429Z,998.53
2018-02-02T13:32:56.383Z,998.52
2018-02-02T13:34:05.333Z,998.54
2018-02-02T13:35:14.286Z,998.53
2018-02-02T13:36:22.997Z,998.56
2018-02-02T13:37:32.249Z,998.6
2018-02-02T13:38:41.309Z,998.56
2018-02-02T13:39:50.052Z,998.56
2018-02-02T13:40:59.016Z,998.55
2018-02-02T13:42:08.522Z,998.57
2018-02-02T13:43:17.492Z,998.54
2018-02-02T13:44:26.733Z,998.57
2018-02-02T13:45:35.479Z,998.61
2018-02-02T13:46:44.442Z,998.63
2018-02-02T13:47:53.663Z,998.64
2018-02-02T13:49:02.608Z,998.63
2018-02-02T13:50:11.577Z,998.59
2018-02-02T13:51:20.259Z,998.59
2018-02-02T13:52:29.476Z,998.65
2018-02-02T13:53:38.680Z,998.63
2018-02-02T13:54:47.373Z,998.61
2018-02-02T13:55:56.330Z,998.64
2018-02-02T13:57:05.016Z,998.67
2018-02-02T13:58:13.691Z,998.68
2018-02-02T13:59:22.663Z,998.7
2018-02-02T14:00:31.894Z,998.71
2018-02-02T14:01:40.854Z,998.72
2018-02-02T14:02:49.553Z,998.73
2018-02-02T14:03:58.534Z,998.72
2018-02-02T14:05:07.228Z,998.74
2018-02-02T14:06:16.481Z,998.74
2018-02-02T14:07:25.756Z,998.71
2018-02-02T14:08:34.972Z,998.68
2018-02-02T14:09:43.920Z,998.73
2018-02-02T14:10:52.856Z,998.77
2018-02-02T14:12:01.800Z,998.77
2018-02-02T14:13:10.789Z,998.81
2018-02-02T14:14:20.051Z,998.82
2018-02-02T14:15:29.276Z,998.81
2018-02-02T14:16:38.792Z,998.84
2018-02-02T14:17:48.064Z,998.83
2018-02-02T14:18:57.025Z,998.87
2018-02-02T14:20:06.226Z,998.89
2018-02-02T14:21:15.757Z,998.88
2018-02-02T14:22:24.725Z,998.88
2018-02-02T14:23:33.723Z,998.89
2018-02-02T14:24:42.964Z,998.91
2018-02-02T14:25:52.206Z,998.98
2018-02-02T14:27:01.469Z,998.95
2018-02-02T14:28:10.721Z,998.96